Dragonera — 9HA2475 — position and weather

sailwx.info

Track history (hours):
 
Tides and Currents Weather Stations Pressure Air Temp Water Temp Dewpoint Dewpoint Depression Visibility Wind Speed Wind Dir Waves Ship Positions

Dragonera

Last reported at 2015-Feb-26 19:09 UTC. Time now 2015-Mar-04 07:02 UTC.
Position N 08°32' W 015°51'.

Length 180 m; draft 9.7 m.

Type: Cargo ship. MMSI: 248698000.

Date/timePositionNaut miles runAvg speedWind from/ knotsBaromVisibWave heightAir tempDewpointWater temp
2015-Feb-26 19:09N 08°32' W 015°51'812.7
2015-Feb-26 18:33N 08°37' W 015°56'1313.0
2015-Feb-26 17:32N 08°47' W 016°05'1312.9
2015-Feb-26 16:31N 08°57' W 016°14'3411.5
2015-Feb-26 13:32N 09°22' W 016°38'1312.9
2015-Feb-26 12:32N 09°32' W 016°47'12912.4
2015-Feb-26 02:10N 11°07' W 018°14'  
2015-Feb-20 07:28N 38°19' W 010°39'  
2015-Feb-17 00:08N 50°32' E 000°09'712.7
2015-Feb-16 23:33N 50°33' E 000°20'1212.4
2015-Feb-16 22:33N 50°38' E 000°39'1111.3
2015-Feb-16 21:33N 50°43' E 000°54'2210.8
2015-Feb-16 19:33N 50°59' E 001°18'  
Track history (hours):
 
Tides and Currents Weather Stations Pressure Air Temp Water Temp Dewpoint Dewpoint Depression Visibility Wind Speed Wind Dir Waves Ship Positions

Dragonera

Last reported at 2015-Feb-26 19:09 UTC. Time now 2015-Mar-04 07:02 UTC.
Position N 08°32' W 015°51'.

Length 180 m; draft 9.7 m.

Type: Cargo ship. MMSI: 248698000.

Date/timePositionNaut miles runAvg speedWind from/ knotsBaromVisibWave heightAir tempDewpointWater temp
2015-Feb-26 19:09N 08°32' W 015°51'812.7
2015-Feb-26 18:33N 08°37' W 015°56'1313.0
2015-Feb-26 17:32N 08°47' W 016°05'1312.9
2015-Feb-26 16:31N 08°57' W 016°14'3411.5
2015-Feb-26 13:32N 09°22' W 016°38'1312.9
2015-Feb-26 12:32N 09°32' W 016°47'12912.4
2015-Feb-26 02:10N 11°07' W 018°14'  
2015-Feb-20 07:28N 38°19' W 010°39'  
2015-Feb-17 00:08N 50°32' E 000°09'712.7
2015-Feb-16 23:33N 50°33' E 000°20'1212.4
2015-Feb-16 22:33N 50°38' E 000°39'1111.3
2015-Feb-16 21:33N 50°43' E 000°54'2210.8
2015-Feb-16 19:33N 50°59' E 001°18'  

Dump ship's entire track history